createdAt,value
2022-12-01T00:01:19.389Z,91.13
2022-12-01T00:03:48.221Z,91.14
2022-12-01T00:06:17.866Z,91.11
2022-12-01T00:09:08.110Z,91.19
2022-12-01T00:11:37.352Z,90.83
2022-12-01T00:14:06.830Z,91.17
2022-12-01T00:16:36.233Z,91.12
2022-12-01T00:19:03.006Z,91.10
2022-12-01T00:21:29.574Z,91.08
2022-12-01T00:23:57.641Z,91.04
2022-12-01T00:26:25.229Z,90.89
2022-12-01T00:28:53.561Z,91.08
2022-12-01T00:31:20.797Z,91.00
2022-12-01T00:33:47.437Z,91.13
2022-12-01T00:36:14.032Z,91.28
2022-12-01T00:38:40.545Z,91.21
2022-12-01T00:41:07.665Z,91.33
2022-12-01T00:43:34.192Z,91.34
2022-12-01T00:46:00.960Z,91.49
2022-12-01T00:48:27.955Z,91.49
2022-12-01T00:50:55.360Z,91.75
2022-12-01T00:53:22.140Z,91.48
2022-12-01T00:55:49.098Z,91.36
2022-12-01T00:58:15.708Z,91.41
2022-12-01T01:00:45.248Z,91.46
2022-12-01T01:03:11.833Z,91.09
2022-12-01T01:05:39.925Z,91.30
2022-12-01T01:08:10.006Z,91.31
2022-12-01T01:10:44.615Z,91.23
2022-12-01T01:13:12.140Z,91.19
2022-12-01T01:15:38.778Z,91.12
2022-12-01T01:18:06.044Z,91.05
2022-12-01T01:20:35.226Z,90.99
2022-12-01T01:23:01.792Z,90.86
2022-12-01T01:25:31.246Z,90.91
2022-12-01T01:28:00.080Z,90.96
2022-12-01T01:30:26.819Z,90.98
2022-12-01T01:32:58.322Z,90.82
2022-12-01T01:35:24.848Z,90.66
2022-12-01T01:37:51.876Z,91.13
2022-12-01T01:40:18.808Z,90.93
2022-12-01T01:42:45.628Z,91.05
2022-12-01T01:45:24.503Z,90.73
2022-12-01T01:47:53.797Z,90.93
2022-12-01T01:50:26.736Z,90.96
2022-12-01T01:52:59.729Z,91.26
2022-12-01T01:55:27.359Z,91.31
2022-12-01T01:57:54.048Z,91.26
2022-12-01T02:00:22.235Z,91.39
2022-12-01T02:02:54.339Z,91.14
2022-12-01T02:05:28.014Z,91.29
2022-12-01T02:07:57.238Z,91.28
2022-12-01T02:10:51.599Z,91.31
2022-12-01T02:13:27.802Z,91.28
2022-12-01T02:16:11.556Z,91.35
2022-12-01T02:18:59.715Z,91.48
2022-12-01T02:21:52.883Z,91.22
2022-12-01T02:24:54.077Z,91.51
2022-12-01T02:27:56.188Z,90.86
2022-12-01T02:30:51.218Z,91.03
2022-12-01T02:33:29.470Z,91.05
2022-12-01T02:36:23.130Z,91.53
2022-12-01T02:39:07.239Z,91.29
2022-12-01T02:42:03.501Z,91.13
2022-12-01T02:44:39.002Z,91.56
2022-12-01T02:47:12.963Z,91.14
2022-12-01T02:49:45.156Z,91.45
2022-12-01T02:52:14.258Z,91.35
2022-12-01T02:54:42.869Z,91.37
2022-12-01T02:57:12.692Z,91.60
2022-12-01T02:59:42.485Z,91.56
2022-12-01T03:02:42.148Z,91.64
2022-12-01T03:05:23.995Z,91.53
2022-12-01T03:08:04.132Z,91.58
2022-12-01T03:10:52.677Z,91.70
2022-12-01T03:13:43.208Z,91.67
2022-12-01T03:16:22.285Z,91.67
2022-12-01T03:19:00.434Z,91.72
2022-12-01T03:21:37.860Z,91.70
2022-12-01T03:24:09.137Z,91.58
2022-12-01T03:26:37.696Z,91.76
2022-12-01T03:29:20.528Z,91.65
2022-12-01T03:31:55.193Z,91.75
2022-12-01T03:34:30.550Z,92.10
2022-12-01T03:37:02.141Z,92.32
2022-12-01T03:39:35.235Z,92.18
2022-12-01T03:42:20.649Z,92.17
2022-12-01T03:45:01.139Z,92.36
2022-12-01T03:47:32.519Z,92.06
2022-12-01T03:50:00.545Z,92.33
2022-12-01T03:53:06.108Z,92.30
2022-12-01T03:55:40.829Z,92.27
2022-12-01T03:58:17.573Z,92.42
2022-12-01T04:00:46.405Z,92.25
2022-12-01T04:03:23.068Z,92.50
2022-12-01T04:05:49.757Z,92.17
2022-12-01T04:08:16.300Z,92.10
2022-12-01T04:10:43.279Z,92.01
2022-12-01T04:13:16.821Z,92.21
2022-12-01T04:15:43.734Z,92.21
2022-12-01T04:18:12.552Z,92.43
2022-12-01T04:20:39.096Z,92.01
2022-12-01T04:23:05.667Z,91.80
2022-12-01T04:25:32.238Z,92.02
2022-12-01T04:27:58.766Z,92.00
2022-12-01T04:30:25.374Z,91.89
2022-12-01T04:32:52.006Z,91.94
2022-12-01T04:35:18.583Z,91.94
2022-12-01T04:37:47.446Z,92.07
2022-12-01T04:40:14.105Z,91.86
2022-12-01T04:42:40.681Z,92.10
2022-12-01T04:45:07.792Z,91.72
2022-12-01T04:47:34.305Z,92.47
2022-12-01T04:50:03.337Z,92.40
2022-12-01T04:52:35.090Z,92.06
2022-12-01T04:55:04.605Z,92.16
2022-12-01T04:57:31.156Z,92.24
2022-12-01T04:59:57.757Z,92.31
2022-12-01T05:02:24.379Z,92.25
2022-12-01T05:04:51.012Z,92.40
2022-12-01T05:07:18.247Z,92.22
2022-12-01T05:09:44.793Z,92.39
2022-12-01T05:12:13.670Z,92.45
2022-12-01T05:14:40.188Z,92.28
2022-12-01T05:17:06.725Z,92.23
2022-12-01T05:19:51.864Z,92.10
2022-12-01T05:22:26.936Z,92.32
2022-12-01T05:25:07.487Z,92.16
2022-12-01T05:27:34.033Z,92.33
2022-12-01T05:30:00.535Z,92.45
2022-12-01T05:32:27.339Z,92.26
2022-12-01T05:34:53.821Z,92.19
2022-12-01T05:37:20.371Z,92.54
2022-12-01T05:39:47.232Z,92.68
2022-12-01T05:42:13.914Z,92.90
2022-12-01T05:44:40.458Z,92.97
2022-12-01T05:47:07.040Z,93.05
2022-12-01T05:49:33.524Z,93.18
2022-12-01T05:52:00.110Z,93.43
2022-12-01T05:54:31.658Z,93.47
2022-12-01T05:56:58.270Z,93.22
2022-12-01T05:59:26.873Z,93.84
2022-12-01T06:01:53.555Z,93.49
2022-12-01T06:04:20.289Z,93.22
2022-12-01T06:06:48.916Z,93.27
2022-12-01T06:09:18.316Z,93.69
2022-12-01T06:11:47.192Z,93.40
2022-12-01T06:14:15.609Z,93.59
2022-12-01T06:16:42.280Z,93.47
2022-12-01T06:19:08.817Z,93.68
2022-12-01T06:21:35.367Z,93.25
2022-12-01T06:24:01.912Z,93.57
2022-12-01T06:26:28.429Z,93.51
2022-12-01T06:28:58.437Z,93.57
2022-12-01T06:31:24.963Z,93.71
2022-12-01T06:33:51.591Z,93.52
2022-12-01T06:36:18.313Z,93.80
2022-12-01T06:38:44.980Z,93.80
2022-12-01T06:41:11.588Z,93.52
2022-12-01T06:43:38.313Z,93.40
2022-12-01T06:46:05.846Z,93.49
2022-12-01T06:48:32.707Z,93.39
2022-12-01T06:51:02.281Z,93.25
2022-12-01T06:53:29.145Z,93.08
2022-12-01T06:56:03.722Z,93.22
2022-12-01T06:58:32.881Z,92.94
2022-12-01T07:01:00.009Z,93.24
2022-12-01T07:03:27.425Z,93.00
2022-12-01T07:05:59.280Z,93.19
2022-12-01T07:08:31.336Z,92.98
2022-12-01T07:11:10.141Z,93.07
2022-12-01T07:13:40.571Z,93.38
2022-12-01T07:16:10.493Z,93.07
2022-12-01T07:19:09.938Z,93.03
2022-12-01T07:21:41.026Z,92.84
2022-12-01T07:24:22.671Z,92.68
2022-12-01T07:26:50.816Z,92.64
2022-12-01T07:29:19.724Z,92.58
2022-12-01T07:31:50.411Z,92.59
2022-12-01T07:34:18.352Z,92.51
2022-12-01T07:36:49.683Z,92.54
2022-12-01T07:39:16.325Z,92.39
2022-12-01T07:41:43.082Z,91.97
2022-12-01T07:44:11.177Z,92.82
2022-12-01T07:46:40.386Z,92.90
2022-12-01T07:49:08.080Z,92.68
2022-12-01T07:51:35.114Z,92.34
2022-12-01T07:54:03.893Z,92.29
2022-12-01T07:56:33.916Z,92.29
2022-12-01T07:59:02.771Z,92.74
2022-12-01T08:01:30.119Z,92.51
2022-12-01T08:03:59.215Z,92.91
2022-12-01T08:06:26.834Z,93.03
2022-12-01T08:08:53.344Z,93.30
2022-12-01T08:11:26.048Z,93.65
2022-12-01T08:13:53.928Z,93.19
2022-12-01T08:16:22.932Z,93.33
2022-12-01T08:18:50.372Z,92.89
2022-12-01T08:21:19.222Z,93.33
2022-12-01T08:23:46.055Z,92.77
2022-12-01T08:26:15.333Z,92.31
2022-12-01T08:28:42.983Z,92.12
2022-12-01T08:31:22.027Z,91.90
2022-12-01T08:33:50.630Z,91.76
2022-12-01T08:36:17.766Z,91.67
2022-12-01T08:38:45.842Z,91.43
2022-12-01T08:41:13.536Z,91.53
2022-12-01T08:43:57.251Z,91.55
2022-12-01T08:46:26.106Z,91.36
2022-12-01T08:48:55.135Z,91.32
2022-12-01T08:51:21.944Z,91.35
2022-12-01T08:53:49.789Z,91.28
2022-12-01T08:56:24.836Z,91.35
2022-12-01T08:58:51.786Z,91.18
2022-12-01T09:01:19.470Z,91.02
2022-12-01T09:03:46.496Z,91.09
2022-12-01T09:06:13.024Z,91.04
2022-12-01T09:08:40.045Z,91.13
2022-12-01T09:11:17.964Z,90.91
2022-12-01T09:13:49.944Z,91.09
2022-12-01T09:16:19.773Z,91.05
2022-12-01T09:18:47.859Z,90.90
2022-12-01T09:21:17.490Z,90.75
2022-12-01T09:23:44.980Z,90.77
2022-12-01T09:26:13.871Z,90.58
2022-12-01T09:28:41.032Z,90.22
2022-12-01T09:31:10.548Z,89.84
2022-12-01T09:33:38.213Z,90.22
2022-12-01T09:36:06.577Z,89.69
2022-12-01T09:38:38.738Z,89.68
2022-12-01T09:41:27.191Z,89.72
2022-12-01T09:44:12.170Z,89.50
2022-12-01T09:46:52.397Z,89.50
2022-12-01T09:49:27.377Z,89.32
2022-12-01T09:52:18.645Z,88.95
2022-12-01T09:54:50.364Z,88.94
2022-12-01T09:57:33.961Z,89.08
2022-12-01T10:00:35.033Z,88.61
2022-12-01T10:03:21.457Z,88.66
2022-12-01T10:06:29.031Z,88.71
2022-12-01T10:09:17.287Z,88.70
2022-12-01T10:11:46.141Z,88.49
2022-12-01T10:14:20.167Z,88.93
2022-12-01T10:17:15.991Z,89.36
2022-12-01T10:19:47.255Z,89.47
2022-12-01T10:22:26.921Z,89.56
2022-12-01T10:25:13.690Z,89.12
2022-12-01T10:28:23.989Z,88.82
2022-12-01T10:30:52.681Z,88.38
2022-12-01T10:33:30.545Z,88.25
2022-12-01T10:35:57.844Z,87.85
2022-12-01T10:38:34.487Z,87.75
2022-12-01T10:41:04.378Z,88.20
2022-12-01T10:43:50.359Z,87.84
2022-12-01T10:46:25.201Z,87.99
2022-12-01T10:48:57.498Z,87.81
2022-12-01T10:51:28.109Z,87.42
2022-12-01T10:54:00.102Z,86.91
2022-12-01T10:56:29.215Z,87.00
2022-12-01T10:58:58.476Z,87.21
2022-12-01T11:01:27.618Z,87.48
2022-12-01T11:04:08.881Z,87.73
2022-12-01T11:06:37.561Z,87.34
2022-12-01T11:09:14.694Z,87.52
2022-12-01T11:11:41.452Z,87.96
2022-12-01T11:14:19.829Z,88.57
2022-12-01T11:16:48.648Z,89.01
2022-12-01T11:19:34.610Z,88.97
2022-12-01T11:22:12.937Z,88.87
2022-12-01T11:24:42.322Z,89.04
2022-12-01T11:27:16.682Z,88.62
2022-12-01T11:29:43.782Z,88.58
2022-12-01T11:32:17.865Z,88.21
2022-12-01T11:34:51.524Z,88.28
2022-12-01T11:37:21.662Z,87.99
2022-12-01T11:39:49.711Z,87.59
2022-12-01T11:42:16.475Z,87.43
2022-12-01T11:45:08.062Z,86.45
2022-12-01T11:47:34.640Z,85.16
2022-12-01T11:50:22.514Z,84.75
2022-12-01T11:52:49.115Z,84.96
2022-12-01T11:55:15.636Z,85.60
2022-12-01T11:57:44.732Z,85.65
2022-12-01T12:00:26.948Z,84.74
2022-12-01T12:03:20.243Z,84.88
2022-12-01T12:06:11.633Z,84.62
2022-12-01T12:08:57.753Z,84.39
2022-12-01T12:11:30.147Z,82.82
2022-12-01T12:14:02.615Z,83.54
2022-12-01T12:16:51.916Z,83.76
2022-12-01T12:20:06.037Z,83.84
2022-12-01T12:22:41.764Z,83.63
2022-12-01T12:25:23.123Z,83.95
2022-12-01T12:28:19.604Z,84.03
2022-12-01T12:31:05.722Z,84.04
2022-12-01T12:33:42.996Z,84.27
2022-12-01T12:36:37.845Z,84.51
2022-12-01T12:39:24.752Z,84.38
2022-12-01T12:41:55.930Z,84.34
2022-12-01T12:44:47.653Z,84.52
2022-12-01T12:47:57.861Z,84.53
2022-12-01T12:50:51.972Z,84.59
2022-12-01T12:53:22.351Z,84.86
2022-12-01T12:55:52.980Z,84.39
2022-12-01T12:58:26.404Z,84.31
2022-12-01T13:01:05.311Z,84.28
2022-12-01T13:03:57.135Z,84.62
2022-12-01T13:06:36.358Z,84.33
2022-12-01T13:09:11.446Z,84.47
2022-12-01T13:11:59.878Z,84.75
2022-12-01T13:14:36.015Z,84.76
2022-12-01T13:17:33.612Z,84.72
2022-12-01T13:20:00.317Z,84.73
2022-12-01T13:22:36.013Z,84.33
2022-12-01T13:25:03.823Z,84.44
2022-12-01T13:27:34.768Z,84.43
2022-12-01T13:30:02.159Z,84.48
2022-12-01T13:32:32.093Z,84.44
2022-12-01T13:35:00.560Z,84.44
2022-12-01T13:37:36.190Z,84.28
2022-12-01T13:40:32.643Z,84.17
2022-12-01T13:43:10.662Z,84.28
2022-12-01T13:45:46.665Z,84.14
2022-12-01T13:52:25.029Z,84.70
2022-12-01T13:55:25.779Z,84.64
2022-12-01T13:58:00.981Z,84.19
2022-12-01T14:00:38.009Z,84.31
2022-12-01T14:06:25.161Z,84.07
2022-12-01T14:09:03.575Z,83.96
2022-12-01T14:11:32.577Z,83.98
2022-12-01T14:14:03.743Z,84.34
2022-12-01T14:16:51.798Z,84.38
2022-12-01T14:19:40.678Z,84.67
2022-12-01T14:22:27.833Z,84.25
2022-12-01T14:24:55.642Z,84.25
2022-12-01T14:27:43.205Z,84.50
2022-12-01T14:30:46.999Z,84.33
2022-12-01T14:33:47.782Z,84.29
2022-12-01T14:36:23.874Z,84.61
2022-12-01T14:38:59.869Z,84.40
2022-12-01T14:41:28.539Z,84.45
2022-12-01T14:44:06.636Z,84.49
2022-12-01T14:47:12.608Z,84.81
2022-12-01T14:49:50.960Z,84.79
2022-12-01T14:52:42.719Z,84.88
2022-12-01T14:55:36.060Z,84.97
2022-12-01T14:58:16.510Z,84.73
2022-12-01T15:01:15.264Z,84.88
2022-12-01T15:04:18.519Z,84.78
2022-12-01T15:07:00.798Z,85.17
2022-12-01T15:09:34.148Z,84.93
2022-12-01T15:12:27.394Z,85.12
2022-12-01T15:14:55.581Z,85.20
2022-12-01T15:17:32.679Z,84.97
2022-12-01T15:19:59.495Z,84.96
2022-12-01T15:22:31.406Z,84.77
2022-12-01T15:25:29.311Z,84.89
2022-12-01T15:28:16.094Z,85.12
2022-12-01T15:30:46.506Z,85.03
2022-12-01T15:33:26.802Z,84.92
2022-12-01T15:35:55.150Z,85.19
2022-12-01T15:38:28.776Z,84.96
2022-12-01T15:43:43.578Z,84.97
2022-12-01T15:46:13.304Z,84.90
2022-12-01T15:48:43.292Z,84.76
2022-12-01T15:51:17.474Z,84.40
2022-12-01T15:53:58.158Z,84.55
2022-12-01T15:56:27.602Z,84.34
2022-12-01T15:58:58.964Z,84.92
2022-12-01T16:01:30.392Z,84.75
2022-12-01T16:04:25.463Z,84.83
2022-12-01T16:06:58.395Z,84.70
2022-12-01T16:09:42.895Z,85.30
2022-12-01T16:12:09.351Z,85.35
2022-12-01T16:14:50.021Z,85.33
2022-12-01T16:17:19.671Z,85.58
2022-12-01T16:19:46.299Z,85.49
2022-12-01T16:22:22.406Z,85.47
2022-12-01T16:24:52.821Z,85.50
2022-12-01T16:27:30.967Z,85.50
2022-12-01T16:30:01.611Z,85.43
2022-12-01T16:32:38.637Z,85.92
2022-12-01T16:35:07.374Z,85.63
2022-12-01T16:37:33.992Z,85.65
2022-12-01T16:40:31.808Z,85.82
2022-12-01T16:42:58.422Z,85.40
2022-12-01T16:45:26.780Z,85.58
2022-12-01T16:47:53.914Z,85.52
2022-12-01T16:50:41.258Z,85.99
2022-12-01T16:53:10.302Z,85.85
2022-12-01T16:55:55.690Z,85.85
2022-12-01T16:58:25.293Z,85.93
2022-12-01T17:00:52.837Z,85.92
2022-12-01T17:03:25.452Z,86.13
2022-12-01T17:05:53.329Z,86.05
2022-12-01T17:08:20.348Z,86.02
2022-12-01T17:10:50.251Z,86.14
2022-12-01T17:13:23.317Z,85.97
2022-12-01T17:15:52.820Z,86.20
2022-12-01T17:18:23.273Z,85.93
2022-12-01T17:21:01.036Z,86.34
2022-12-01T17:23:28.307Z,86.33
2022-12-01T17:25:54.925Z,86.08
2022-12-01T17:28:21.988Z,86.22
2022-12-01T17:30:48.590Z,86.41
2022-12-01T17:33:15.363Z,86.24
2022-12-01T17:35:41.890Z,86.40
2022-12-01T17:38:08.672Z,86.29
2022-12-01T17:40:35.300Z,86.42
2022-12-01T17:43:06.685Z,86.47
2022-12-01T17:45:33.862Z,86.51
2022-12-01T17:48:00.446Z,86.71
2022-12-01T17:50:26.992Z,86.62
2022-12-01T17:52:53.577Z,86.55
2022-12-01T17:55:20.175Z,86.17
2022-12-01T17:57:46.947Z,86.92
2022-12-01T18:00:14.271Z,86.47
2022-12-01T18:02:43.256Z,86.67
2022-12-01T18:05:12.146Z,86.81
2022-12-01T18:07:38.927Z,86.73
2022-12-01T18:10:08.266Z,86.67
2022-12-01T18:12:34.849Z,87.17
2022-12-01T18:15:03.666Z,86.78
2022-12-01T18:17:30.329Z,86.95
2022-12-01T18:19:56.873Z,87.24
2022-12-01T18:22:23.424Z,87.42
2022-12-01T18:24:50.266Z,87.44
2022-12-01T18:27:19.250Z,87.99
2022-12-01T18:29:45.756Z,87.38
2022-12-01T18:32:14.950Z,87.87
2022-12-01T18:34:44.029Z,87.91
2022-12-01T18:37:10.745Z,87.81
2022-12-01T18:39:37.450Z,87.58
2022-12-01T18:42:04.441Z,87.94
2022-12-01T18:44:31.120Z,88.02
2022-12-01T18:46:59.027Z,88.12
2022-12-01T18:49:25.686Z,88.29
2022-12-01T18:51:52.303Z,88.16
2022-12-01T18:54:18.882Z,88.02
2022-12-01T18:56:45.535Z,88.07
2022-12-01T18:59:13.605Z,87.77
2022-12-01T19:01:43.931Z,87.74
2022-12-01T19:04:11.448Z,87.32
2022-12-01T19:06:41.801Z,87.74
2022-12-01T19:09:12.850Z,87.76
2022-12-01T19:11:40.648Z,87.74
2022-12-01T19:14:08.269Z,87.76
2022-12-01T19:16:34.990Z,87.84
2022-12-01T19:19:01.712Z,88.06
2022-12-01T19:21:30.725Z,88.02
2022-12-01T19:23:57.239Z,88.00
2022-12-01T19:26:25.547Z,88.47
2022-12-01T19:28:52.263Z,88.25
2022-12-01T19:31:23.932Z,88.50
2022-12-01T19:33:52.671Z,88.33
2022-12-01T19:36:22.118Z,88.44
2022-12-01T19:38:48.963Z,88.13
2022-12-01T19:41:16.725Z,88.32
2022-12-01T19:43:43.346Z,88.21
2022-12-01T19:46:22.732Z,88.24
2022-12-01T19:48:55.341Z,88.26
2022-12-01T19:51:28.277Z,88.12
2022-12-01T19:53:55.611Z,88.45
2022-12-01T19:56:22.689Z,88.02
2022-12-01T19:58:52.262Z,88.41
2022-12-01T20:01:19.912Z,88.22
2022-12-01T20:03:50.936Z,88.45
2022-12-01T20:06:20.186Z,88.51
2022-12-01T20:08:53.213Z,88.55
2022-12-01T20:11:19.966Z,88.73
2022-12-01T20:13:47.512Z,88.60
2022-12-01T20:16:17.087Z,88.65
2022-12-01T20:18:46.487Z,88.87
2022-12-01T20:21:19.650Z,89.05
2022-12-01T20:23:58.812Z,89.03
2022-12-01T20:26:31.057Z,88.82
2022-12-01T20:29:01.209Z,88.63
2022-12-01T20:31:32.169Z,88.89
2022-12-01T20:34:01.365Z,88.93
2022-12-01T20:36:28.316Z,89.07
2022-12-01T20:38:55.629Z,89.16
2022-12-01T20:41:22.675Z,88.95
2022-12-01T20:43:49.365Z,89.32
2022-12-01T20:46:19.614Z,88.90
2022-12-01T20:48:46.228Z,89.35
2022-12-01T20:51:14.672Z,89.17
2022-12-01T20:53:59.665Z,89.32
2022-12-01T20:56:28.253Z,88.92
2022-12-01T20:58:54.998Z,89.39
2022-12-01T21:01:22.543Z,89.33
2022-12-01T21:03:50.990Z,89.58
2022-12-01T21:06:18.349Z,89.60
2022-12-01T21:08:46.772Z,89.63
2022-12-01T21:11:45.088Z,89.61
2022-12-01T21:15:10.008Z,89.50
2022-12-01T21:17:49.184Z,89.17
2022-12-01T21:20:30.226Z,89.22
2022-12-01T21:23:11.228Z,89.39
2022-12-01T21:25:39.775Z,89.36
2022-12-01T21:28:23.656Z,89.50
2022-12-01T21:30:58.580Z,89.47
2022-12-01T21:33:34.069Z,89.41
2022-12-01T21:36:02.724Z,88.92
2022-12-01T21:38:31.796Z,89.19
2022-12-01T21:40:58.390Z,89.20
2022-12-01T21:43:25.891Z,89.25
2022-12-01T21:45:56.842Z,88.95
2022-12-01T21:48:26.145Z,89.22
2022-12-01T21:51:11.793Z,89.06
2022-12-01T21:53:39.344Z,89.19
2022-12-01T21:56:12.891Z,89.17
2022-12-01T21:58:39.460Z,89.11
2022-12-01T22:01:27.215Z,89.05
2022-12-01T22:04:01.651Z,89.35
2022-12-01T22:06:36.064Z,89.03
2022-12-01T22:09:14.479Z,88.93
2022-12-01T22:11:43.050Z,89.08
2022-12-01T22:14:15.528Z,89.21
2022-12-01T22:16:45.219Z,89.09
2022-12-01T22:19:28.801Z,89.16
2022-12-01T22:22:10.699Z,88.94
2022-12-01T22:24:56.095Z,88.84
2022-12-01T22:27:35.896Z,88.77
2022-12-01T22:30:02.477Z,88.58
2022-12-01T22:32:44.480Z,88.35
2022-12-01T22:35:17.192Z,88.86
2022-12-01T22:38:07.084Z,88.72
2022-12-01T22:40:36.630Z,88.73
2022-12-01T22:43:18.246Z,88.47
2022-12-01T22:45:49.355Z,88.26
2022-12-01T22:48:36.230Z,88.45
2022-12-01T22:51:18.013Z,88.38
2022-12-01T22:53:46.161Z,88.52
2022-12-01T22:56:34.683Z,88.46
2022-12-01T22:59:10.603Z,88.69
2022-12-01T23:02:02.177Z,88.51
2022-12-01T23:04:33.310Z,88.41
2022-12-01T23:07:08.799Z,88.54
2022-12-01T23:09:41.285Z,88.59
2022-12-01T23:12:10.812Z,88.38
2022-12-01T23:14:44.541Z,88.45
2022-12-01T23:17:26.798Z,88.44
2022-12-01T23:20:02.428Z,88.59
2022-12-01T23:22:31.328Z,88.59
2022-12-01T23:25:14.014Z,88.52
2022-12-01T23:27:42.216Z,88.51
2022-12-01T23:30:13.095Z,88.54
2022-12-01T23:32:40.074Z,88.47
2022-12-01T23:35:13.410Z,88.29
2022-12-01T23:37:42.507Z,88.51
2022-12-01T23:40:20.513Z,88.48
2022-12-01T23:42:47.984Z,88.63
2022-12-01T23:45:23.367Z,88.49
2022-12-01T23:47:51.439Z,88.78
2022-12-01T23:50:24.454Z,88.67
2022-12-01T23:52:51.574Z,88.79
2022-12-01T23:55:27.286Z,88.89
2022-12-01T23:57:54.209Z,88.47
